PWSweather.com
Personal Weather Stations
Station Observations
IMAZOWIE6
WarszawaPL

WarszawaPL

Lat: 52.27957, Lon: 21.05489

Elevation: 100

Station Type: WS1080

http://stacjapogody.waw.pl/

High Low Average
Temperature 1804.5°F984.7°C 60.4°F15.8°C 113.2°F45.1°C
Dew Point 1018.1°F547.8°C -166.8°F-110.4°C -150.8°F-101.6°C
Winds 563.2 mph 906.4 kmh Calm Calm 12.0 mph N19.3 kmh N
Wind Gusts 52.8 mph85.0 kmh -- 1.0 mph1.6 kmh
Humidity 1% 0% 1%
Pressure 29.73 in1006.8 mb 0.00 in0.0 mb -
Precipitation 0.00 in0.0 mm - -
Hour Temp Dew Point Humidity Winds Wind Gusts Pressure Precip Precip Rate Daily Precip Total
12:01 AM 64.4°F18.0°C -166.4°F-110.2°C - Calm Calm -- 29.60 in1002.4 mb 0.00 in0.0 mm 0.00 in0.0 mm 0.00 in0.0 mm
12:16 AM 64.0°F17.8°C -166.4°F-110.2°C - Calm Calm -- 29.60 in1002.4 mb 0.00 in0.0 mm 0.00 in0.0 mm 0.00 in0.0 mm
12:31 AM 63.7°F17.6°C -166.4°F-110.2°C - Calm Calm -- 29.60 in1002.4 mb 0.00 in0.0 mm 0.00 in0.0 mm 0.00 in0.0 mm
12:46 AM 63.1°F17.3°C -166.5°F-110.3°C - Calm Calm -- 29.60 in1002.4 mb 0.00 in0.0 mm 0.00 in0.0 mm 0.00 in0.0 mm
01:01 AM 62.4°F16.9°C -166.6°F-110.3°C - Calm Calm -- 29.62 in1003.0 mb 0.00 in0.0 mm 0.00 in0.0 mm 0.00 in0.0 mm
01:16 AM 61.7°F16.5°C -166.6°F-110.3°C - Calm Calm -- 29.62 in1003.0 mb 0.00 in0.0 mm 0.00 in0.0 mm 0.00 in0.0 mm
01:31 AM 61.9°F16.6°C -166.6°F-110.3°C - Calm Calm -- 29.63 in1003.4 mb 0.00 in0.0 mm 0.00 in0.0 mm 0.00 in0.0 mm
01:46 AM 61.5°F16.4°C -166.6°F-110.3°C - Calm Calm -- 29.64 in1003.7 mb 0.00 in0.0 mm 0.00 in0.0 mm 0.00 in0.0 mm
02:01 AM 61.3°F16.3°C -166.7°F-110.4°C - Calm Calm -- 29.64 in1003.7 mb 0.00 in0.0 mm 0.00 in0.0 mm 0.00 in0.0 mm
02:16 AM 61.3°F16.3°C -166.7°F-110.4°C - Calm Calm -- 29.65 in1004.1 mb 0.00 in0.0 mm 0.00 in0.0 mm 0.00 in0.0 mm
02:31 AM 61.5°F16.4°C -166.6°F-110.3°C - Calm Calm -- 29.65 in1004.1 mb 0.00 in0.0 mm 0.00 in0.0 mm 0.00 in0.0 mm
02:46 AM 61.2°F16.2°C -166.7°F-110.4°C - Calm Calm -- 29.67 in1004.7 mb 0.00 in0.0 mm 0.00 in0.0 mm 0.00 in0.0 mm
03:01 AM 60.8°F16.0°C -166.7°F-110.4°C - Calm Calm -- 29.68 in1005.1 mb 0.00 in0.0 mm 0.00 in0.0 mm 0.00 in0.0 mm
03:16 AM 60.4°F15.8°C -166.8°F-110.4°C - Calm Calm -- 29.69 in1005.4 mb 0.00 in0.0 mm 0.00 in0.0 mm 0.00 in0.0 mm
03:31 AM 61.2°F16.2°C -166.7°F-110.4°C - Calm Calm -- 29.70 in1005.8 mb 0.00 in0.0 mm 0.00 in0.0 mm 0.00 in0.0 mm
03:46 AM 62.6°F17.0°C -166.5°F-110.3°C - Calm Calm -- 29.70 in1005.8 mb 0.00 in0.0 mm 0.00 in0.0 mm 0.00 in0.0 mm
04:01 AM 64.2°F17.9°C -166.4°F-110.2°C - Calm Calm -- 29.71 in1006.1 mb 0.00 in0.0 mm 0.00 in0.0 mm 0.00 in0.0 mm
04:16 AM 66.0°F18.9°C -166.2°F-110.1°C - Calm Calm -- 29.73 in1006.8 mb 0.00 in0.0 mm 0.00 in0.0 mm 0.00 in0.0 mm
04:31 AM 68.2°F20.1°C -166.0°F-110.0°C - Calm Calm -- 29.72 in1006.4 mb 0.00 in0.0 mm 0.00 in0.0 mm 0.00 in0.0 mm
04:46 AM 69.8°F21.0°C -165.8°F-109.9°C - Calm Calm -- 29.71 in1006.1 mb 0.00 in0.0 mm 0.00 in0.0 mm 0.00 in0.0 mm
05:01 AM 69.3°F20.7°C -165.9°F-109.9°C - Calm Calm -- 29.71 in1006.1 mb 0.00 in0.0 mm 0.00 in0.0 mm 0.00 in0.0 mm
05:16 AM 66.4°F19.1°C -166.2°F-110.1°C - Calm Calm -- 29.71 in1006.1 mb 0.00 in0.0 mm 0.00 in0.0 mm 0.00 in0.0 mm
05:31 AM 69.1°F20.6°C -165.9°F-109.9°C - Calm Calm -- 29.70 in1005.8 mb 0.00 in0.0 mm 0.00 in0.0 mm 0.00 in0.0 mm
05:56 AM 68.4°F20.2°C -166.0°F-110.0°C - Calm Calm -- 29.72 in1006.4 mb 0.00 in0.0 mm 0.00 in0.0 mm 0.00 in0.0 mm
06:01 AM 68.0°F20.0°C -166.0°F-110.0°C - Calm Calm -- 29.71 in1006.1 mb 0.00 in0.0 mm 0.00 in0.0 mm 0.00 in0.0 mm
06:16 AM 68.5°F20.3°C -165.9°F-109.9°C - Calm Calm 0.6 mph1.0 kmh 29.71 in1006.1 mb 0.00 in0.0 mm 0.00 in0.0 mm 0.00 in0.0 mm
06:31 AM 70.3°F21.3°C -165.8°F-109.9°C - Calm Calm -- 29.71 in1006.1 mb 0.00 in0.0 mm 0.00 in0.0 mm 0.00 in0.0 mm
06:46 AM 70.3°F21.3°C -165.8°F-109.9°C - Calm Calm -- 29.71 in1006.1 mb 0.00 in0.0 mm 0.00 in0.0 mm 0.00 in0.0 mm
07:01 AM 73.6°F23.1°C -165.4°F-109.7°C - Calm Calm -- 29.69 in1005.4 mb 0.00 in0.0 mm 0.00 in0.0 mm 0.00 in0.0 mm
07:16 AM 76.3°F24.6°C -165.2°F-109.6°C - Calm Calm -- 29.66 in1004.4 mb 0.00 in0.0 mm 0.00 in0.0 mm 0.00 in0.0 mm
07:31 AM 77.5°F25.3°C -165.0°F-109.4°C - Calm Calm -- 29.63 in1003.4 mb 0.00 in0.0 mm 0.00 in0.0 mm 0.00 in0.0 mm
07:46 AM 79.3°F26.3°C -164.9°F-109.4°C - Calm Calm -- 29.57 in1001.4 mb 0.00 in0.0 mm 0.00 in0.0 mm 0.00 in0.0 mm
08:01 AM 79.5°F26.4°C -164.8°F-109.3°C - Calm Calm -- 29.51 in999.3 mb 0.00 in0.0 mm 0.00 in0.0 mm 0.00 in0.0 mm
08:16 AM 78.4°F25.8°C -165.0°F-109.4°C - Calm Calm -- 29.44 in997.0 mb 0.00 in0.0 mm 0.00 in0.0 mm 0.00 in0.0 mm
08:31 AM 79.5°F26.4°C -164.8°F-109.3°C - Calm Calm 2.0 mph3.2 kmh 29.39 in995.3 mb 0.00 in0.0 mm 0.00 in0.0 mm 0.00 in0.0 mm
08:46 AM 80.2°F26.8°C -164.8°F-109.3°C - Calm Calm -- 29.35 in993.9 mb 0.00 in0.0 mm 0.00 in0.0 mm 0.00 in0.0 mm
09:01 AM 79.5°F26.4°C -164.8°F-109.3°C - Calm Calm 0.6 mph1.0 kmh 29.31 in992.6 mb 0.00 in0.0 mm 0.00 in0.0 mm 0.00 in0.0 mm
09:16 AM 80.1°F26.7°C -164.8°F-109.3°C - Calm Calm -- 29.26 in990.9 mb 0.00 in0.0 mm 0.00 in0.0 mm 0.00 in0.0 mm
09:31 AM 80.6°F27.0°C -164.7°F-109.3°C - Calm Calm 1.4 mph2.3 kmh 29.23 in989.8 mb 0.00 in0.0 mm 0.00 in0.0 mm 0.00 in0.0 mm
09:46 AM 81.1°F27.3°C -164.7°F-109.3°C - Calm Calm -- 29.20 in988.8 mb 0.00 in0.0 mm 0.00 in0.0 mm 0.00 in0.0 mm
10:01 AM 81.5°F27.5°C -164.7°F-109.3°C - Calm Calm -- 29.16 in987.5 mb 0.00 in0.0 mm 0.00 in0.0 mm 0.00 in0.0 mm
10:16 AM 82.4°F28.0°C -164.6°F-109.2°C - Calm Calm -- 29.13 in986.5 mb 0.00 in0.0 mm 0.00 in0.0 mm 0.00 in0.0 mm
10:31 AM 82.8°F28.2°C -164.5°F-109.2°C - Calm Calm -- 29.10 in985.4 mb 0.00 in0.0 mm 0.00 in0.0 mm 0.00 in0.0 mm
10:46 AM 1804.5°F984.7°C 1018.1°F547.8°C 1% 563.2 mph N906.4 kmh N 51.2 mph82.4 kmh 2.27 in76.9 mb 0.00 in0.0 mm 0.00 in0.0 mm 0.00 in0.0 mm
11:01 AM 81.5°F27.5°C -164.7°F-109.3°C - Calm Calm -- 29.05 in983.7 mb 0.00 in0.0 mm 0.00 in0.0 mm 0.00 in0.0 mm
11:16 AM 82.0°F27.8°C -164.6°F-109.2°C - Calm Calm 0.6 mph1.0 kmh 29.03 in983.1 mb 0.00 in0.0 mm 0.00 in0.0 mm 0.00 in0.0 mm
11:31 AM 82.0°F27.8°C -164.6°F-109.2°C - Calm Calm -- 29.01 in982.4 mb 0.00 in0.0 mm 0.00 in0.0 mm 0.00 in0.0 mm
11:46 AM 82.2°F27.9°C -164.6°F-109.2°C - Calm Calm 0.6 mph1.0 kmh 28.98 in981.4 mb 0.00 in0.0 mm 0.00 in0.0 mm 0.00 in0.0 mm
12:01 PM 83.1°F28.4°C -164.5°F-109.2°C - Calm Calm 3.4 mph5.5 kmh 28.94 in980.0 mb 0.00 in0.0 mm 0.00 in0.0 mm 0.00 in0.0 mm
12:16 PM 83.8°F28.8°C -164.4°F-109.1°C - Calm Calm 0.6 mph1.0 kmh 28.91 in979.0 mb 0.00 in0.0 mm 0.00 in0.0 mm 0.00 in0.0 mm
12:31 PM 83.7°F28.7°C -164.4°F-109.1°C - Calm Calm -- 28.87 in977.7 mb 0.00 in0.0 mm 0.00 in0.0 mm 0.00 in0.0 mm
12:46 PM 84.4°F29.1°C -164.4°F-109.1°C - Calm Calm -- 28.83 in976.3 mb 0.00 in0.0 mm 0.00 in0.0 mm 0.00 in0.0 mm
01:01 PM 84.0°F28.9°C -164.4°F-109.1°C - Calm Calm 1.4 mph2.3 kmh 28.80 in975.3 mb 0.00 in0.0 mm 0.00 in0.0 mm 0.00 in0.0 mm
01:16 PM 84.6°F29.2°C -164.3°F-109.1°C - Calm Calm -- 28.78 in974.6 mb 0.00 in0.0 mm 0.00 in0.0 mm 0.00 in0.0 mm
01:31 PM 85.1°F29.5°C -164.3°F-109.1°C - Calm Calm -- 28.77 in974.3 mb 0.00 in0.0 mm 0.00 in0.0 mm 0.00 in0.0 mm
01:46 PM 86.0°F30.0°C -164.2°F-109.0°C - Calm Calm -- 28.77 in974.3 mb 0.00 in0.0 mm 0.00 in0.0 mm 0.00 in0.0 mm
02:01 PM 86.0°F30.0°C -164.2°F-109.0°C - Calm Calm -- 28.76 in973.9 mb 0.00 in0.0 mm 0.00 in0.0 mm 0.00 in0.0 mm
02:16 PM 86.5°F30.3°C -164.1°F-108.9°C - Calm Calm -- 28.75 in973.6 mb 0.00 in0.0 mm 0.00 in0.0 mm 0.00 in0.0 mm
02:31 PM 86.9°F30.5°C -164.1°F-108.9°C - Calm Calm 3.4 mph5.5 kmh 28.74 in973.2 mb 0.00 in0.0 mm 0.00 in0.0 mm 0.00 in0.0 mm
02:46 PM 87.1°F30.6°C -164.1°F-108.9°C - Calm Calm -- 28.73 in972.9 mb 0.00 in0.0 mm 0.00 in0.0 mm 0.00 in0.0 mm
03:01 PM 87.3°F30.7°C -164.1°F-108.9°C - Calm Calm -- 28.72 in972.6 mb 0.00 in0.0 mm 0.00 in0.0 mm 0.00 in0.0 mm
03:16 PM 87.3°F30.7°C -164.1°F-108.9°C - Calm Calm -- 28.71 in972.2 mb 0.00 in0.0 mm 0.00 in0.0 mm 0.00 in0.0 mm
03:31 PM 87.3°F30.7°C -164.1°F-108.9°C - Calm Calm -- 28.70 in971.9 mb 0.00 in0.0 mm 0.00 in0.0 mm 0.00 in0.0 mm
03:46 PM 86.9°F30.5°C -164.1°F-108.9°C - Calm Calm -- 28.69 in971.6 mb 0.00 in0.0 mm 0.00 in0.0 mm 0.00 in0.0 mm
04:01 PM 86.9°F30.5°C -164.1°F-108.9°C - Calm Calm 0.6 mph1.0 kmh 28.69 in971.6 mb 0.00 in0.0 mm 0.00 in0.0 mm 0.00 in0.0 mm
04:16 PM 86.5°F30.3°C -164.1°F-108.9°C - Calm Calm -- 28.68 in971.2 mb 0.00 in0.0 mm 0.00 in0.0 mm 0.00 in0.0 mm
04:31 PM 86.4°F30.2°C -164.2°F-109.0°C - Calm Calm -- 28.66 in970.5 mb 0.00 in0.0 mm 0.00 in0.0 mm 0.00 in0.0 mm
04:46 PM 86.5°F30.3°C -164.1°F-108.9°C - Calm Calm -- 28.64 in969.9 mb 0.00 in0.0 mm 0.00 in0.0 mm 0.00 in0.0 mm
05:01 PM 86.4°F30.2°C -164.2°F-109.0°C - Calm Calm -- 28.63 in969.5 mb 0.00 in0.0 mm 0.00 in0.0 mm 0.00 in0.0 mm
05:16 PM 85.8°F29.9°C -164.2°F-109.0°C - Calm Calm -- 28.62 in969.2 mb 0.00 in0.0 mm 0.00 in0.0 mm 0.00 in0.0 mm
05:31 PM 85.5°F29.7°C -164.3°F-109.1°C - Calm Calm -- 28.61 in968.8 mb 0.00 in0.0 mm 0.00 in0.0 mm 0.00 in0.0 mm
05:46 PM 85.5°F29.7°C -164.3°F-109.1°C - Calm Calm -- 28.59 in968.2 mb 0.00 in0.0 mm 0.00 in0.0 mm 0.00 in0.0 mm
06:01 PM 84.9°F29.4°C -164.3°F-109.1°C - Calm Calm -- 28.58 in967.8 mb 0.00 in0.0 mm 0.00 in0.0 mm 0.00 in0.0 mm
06:16 PM 84.7°F29.3°C -164.3°F-109.1°C - Calm Calm -- 28.58 in967.8 mb 0.00 in0.0 mm 0.00 in0.0 mm 0.00 in0.0 mm
06:31 PM 84.0°F28.9°C -164.4°F-109.1°C - Calm Calm -- 28.57 in967.5 mb 0.00 in0.0 mm 0.00 in0.0 mm 0.00 in0.0 mm
06:46 PM 83.7°F28.7°C -164.4°F-109.1°C - Calm Calm 0.6 mph1.0 kmh 28.60 in968.5 mb 0.00 in0.0 mm 0.00 in0.0 mm 0.00 in0.0 mm
07:01 PM 83.3°F28.5°C -164.5°F-109.2°C - Calm Calm -- 28.65 in970.2 mb 0.00 in0.0 mm 0.00 in0.0 mm 0.00 in0.0 mm
07:16 PM 82.8°F28.2°C -164.5°F-109.2°C - Calm Calm -- 28.68 in971.2 mb 0.00 in0.0 mm 0.00 in0.0 mm 0.00 in0.0 mm
07:31 PM 82.4°F28.0°C -164.6°F-109.2°C - Calm Calm -- 28.72 in972.6 mb 0.00 in0.0 mm 0.00 in0.0 mm 0.00 in0.0 mm
07:46 PM 81.9°F27.7°C -164.6°F-109.2°C - Calm Calm -- 28.75 in973.6 mb 0.00 in0.0 mm 0.00 in0.0 mm 0.00 in0.0 mm
08:01 PM 81.0°F27.2°C -164.7°F-109.3°C - Calm Calm 1.4 mph2.3 kmh 28.77 in974.3 mb 0.00 in0.0 mm 0.00 in0.0 mm 0.00 in0.0 mm
08:16 PM 80.4°F26.9°C -164.8°F-109.3°C - Calm Calm -- 28.80 in975.3 mb 0.00 in0.0 mm 0.00 in0.0 mm 0.00 in0.0 mm
08:31 PM 80.2°F26.8°C -164.8°F-109.3°C - Calm Calm -- 28.82 in976.0 mb 0.00 in0.0 mm 0.00 in0.0 mm 0.00 in0.0 mm
08:46 PM 79.7°F26.5°C -164.8°F-109.3°C - Calm Calm -- 28.84 in976.6 mb 0.00 in0.0 mm 0.00 in0.0 mm 0.00 in0.0 mm
09:01 PM 79.3°F26.3°C -164.9°F-109.4°C - Calm Calm -- 28.85 in977.0 mb 0.00 in0.0 mm 0.00 in0.0 mm 0.00 in0.0 mm
09:16 PM 79.0°F26.1°C -164.9°F-109.4°C - Calm Calm -- 28.87 in977.7 mb 0.00 in0.0 mm 0.00 in0.0 mm 0.00 in0.0 mm
09:31 PM 78.4°F25.8°C -165.0°F-109.4°C - Calm Calm 0.6 mph1.0 kmh 28.87 in977.7 mb 0.00 in0.0 mm 0.00 in0.0 mm 0.00 in0.0 mm
09:46 PM 78.3°F25.7°C -165.0°F-109.4°C - Calm Calm -- 28.88 in978.0 mb 0.00 in0.0 mm 0.00 in0.0 mm 0.00 in0.0 mm
10:00 PM 1792.8°F978.2°C 6.5°F-14.2°C 0% 563.2 mph N906.4 kmh N 52.8 mph85.0 kmh 0.00 in0.0 mb 0.00 in0.0 mm 0.00 in0.0 mm 0.00 in0.0 mm
10:16 PM 77.7°F25.4°C -165.0°F-109.4°C - Calm Calm -- 28.90 in978.7 mb 0.00 in0.0 mm 0.00 in0.0 mm 0.00 in0.0 mm
10:31 PM 77.4°F25.2°C -165.1°F-109.5°C - Calm Calm 0.6 mph1.0 kmh 28.92 in979.3 mb 0.00 in0.0 mm 0.00 in0.0 mm 0.00 in0.0 mm
10:46 PM 76.8°F24.9°C -165.1°F-109.5°C - Calm Calm -- 28.93 in979.7 mb 0.00 in0.0 mm 0.00 in0.0 mm 0.00 in0.0 mm
11:01 PM 76.3°F24.6°C -165.2°F-109.6°C - Calm Calm -- 28.95 in980.4 mb 0.00 in0.0 mm 0.00 in0.0 mm 0.00 in0.0 mm
11:16 PM 76.1°F24.5°C -165.2°F-109.6°C - Calm Calm -- 28.95 in980.4 mb 0.00 in0.0 mm 0.00 in0.0 mm 0.00 in0.0 mm
11:48 PM 75.4°F24.1°C -165.3°F-109.6°C - Calm Calm -- 28.97 in981.0 mb 0.00 in0.0 mm 0.00 in0.0 mm 0.00 in0.0 mm